Погода Елгавкрастина неделю

Лимбажский район, Латвия

24 - 30 июня
  • 24июня
    Сегодня
    +13°
    +20°
    Небольшая облачность
    ВремяПогодаТемператураВлажностьДавлениеВетер, м/сВероятность осадков
    00:00Небольшая облачность+15°C95 %756 мм1.4 м/с19 %
    03:00Пасмурно, сплошная облачность+15°C97 %757 мм1.5 м/с16 %
    06:00Пасмурно, сплошная облачность+15°C95 %758 мм1.6 м/с13 %
    09:00Пасмурно, небольшой дождь+17°C92 %759 мм1.6 м/с38 %
    12:00Небольшая облачность+19°C88 %760 мм1.5 м/с34 %
    15:00Небольшая облачность+19°C78 %761 мм2.6 м/с30 %
    18:00Ясно и безоблачно+20°C74 %761 мм2.4 м/с20 %
    21:00Ясно и безоблачно+18°C78 %762 мм1.9 м/с3 %
  • 25июня
    Вторник
    +12°
    +19°
    Ясно и безоблачно
    ВремяПогодаТемператураВлажностьДавлениеВетер, м/сВероятность осадков
    00:00Ясно и безоблачно+15°C78 %763 мм1.9 м/с2 %
    03:00Ясно и безоблачно+14°C83 %763 мм1.8 м/с2 %
    06:00Ясно и безоблачно+14°C89 %764 мм1.7 м/с2 %
    09:00Ясно и безоблачно+18°C81 %765 мм2.0 м/с2 %
    12:00Облачно с прояснениями+18°C67 %765 мм2.6 м/с2 %
    15:00Ясно и безоблачно+18°C67 %765 мм2.9 м/с2 %
    18:00Ясно и безоблачно+19°C70 %764 мм2.3 м/с2 %
    21:00Ясно и безоблачно+18°C76 %764 мм1.6 м/с2 %
  • 26июня
    Среда
    +14°
    +22°
    Ясно и безоблачно
    ВремяПогодаТемператураВлажностьДавлениеВетер, м/сВероятность осадков
    00:00Ясно и безоблачно+15°C79 %764 мм1.5 м/с2 %
    03:00Ясно и безоблачно+13°C85 %764 мм1.4 м/с2 %
    06:00Ясно и безоблачно+14°C87 %764 мм1.2 м/с2 %
    09:00Ясно и безоблачно+19°C79 %763 мм1.1 м/с2 %
    12:00Ясно и безоблачно+21°C74 %763 мм1.7 м/с2 %
    15:00Ясно и безоблачно+21°C71 %763 мм2.4 м/с2 %
    18:00Ясно и безоблачно+21°C66 %762 мм2.0 м/с2 %
    21:00Ясно и безоблачно+19°C79 %762 мм1.3 м/с2 %
  • 27июня
    Четверг
    +14°
    +22°
    Ясно и безоблачно
    ВремяПогодаТемператураВлажностьДавлениеВетер, м/сВероятность осадков
    00:00Ясно и безоблачно+16°C85 %762 мм1.4 м/с2 %
    03:00Ясно и безоблачно+15°C85 %762 мм1.1 м/с2 %
    06:00Ясно и безоблачно+16°C85 %762 мм1.0 м/с2 %
    09:00Ясно и безоблачно+20°C79 %762 мм1.1 м/с2 %
    12:00Ясно и безоблачно+21°C72 %762 мм1.6 м/с2 %
    15:00Ясно и безоблачно+22°C70 %762 мм2.4 м/с2 %
    18:00Ясно и безоблачно+22°C72 %762 мм2.1 м/с2 %
    21:00Ясно и безоблачно+20°C77 %761 мм1.4 м/с2 %
  • 28июня
    Пятница
    +19°
    +25°
    Ясно и безоблачно
    ВремяПогодаТемператураВлажностьДавлениеВетер, м/сВероятность осадков
    00:00Ясно и безоблачно+17°C87 %761 мм1.3 м/с2 %
    03:00Ясно и безоблачно+16°C90 %762 мм1.3 м/с2 %
    06:00Ясно и безоблачно+17°C91 %761 мм1.3 м/с2 %
    09:00Ясно и безоблачно+22°C72 %761 мм1.3 м/с2 %
    12:00Ясно и безоблачно+23°C70 %761 мм1.7 м/с2 %
    15:00Ясно и безоблачно+24°C67 %760 мм2.2 м/с3 %
    18:00Ясно и безоблачно+25°C71 %759 мм1.9 м/с2 %
    21:00Ясно и безоблачно+23°C85 %758 мм1.5 м/с2 %
Мы используем cookies
Соглашаюсь